createdAt,value
2017-08-12T00:02:20.399Z,12.30
2017-08-12T00:05:00.316Z,12.40
2017-08-12T00:07:28.348Z,12.40
2017-08-12T00:09:56.375Z,12.30
2017-08-12T00:12:25.188Z,12.20
2017-08-12T00:14:57.435Z,12.20
2017-08-12T00:17:26.252Z,12.10
2017-08-12T00:19:54.280Z,12.00
2017-08-12T00:22:22.304Z,12.00
2017-08-12T00:24:51.248Z,12.00
2017-08-12T00:27:20.248Z,12.00
2017-08-12T00:29:49.243Z,12.00
2017-08-12T00:32:17.275Z,12.10
2017-08-12T00:34:45.308Z,12.10
2017-08-12T00:37:15.020Z,12.10
2017-08-12T00:39:43.092Z,12.00
2017-08-12T00:42:13.036Z,12.00
2017-08-12T00:44:41.111Z,12.10
2017-08-12T00:47:12.183Z,12.10
2017-08-12T00:49:40.211Z,12.10
2017-08-12T00:52:08.283Z,12.20
2017-08-12T00:54:37.307Z,12.10
2017-08-12T00:57:05.343Z,12.20
2017-08-12T00:59:33.371Z,12.20
2017-08-12T01:02:02.188Z,12.10
2017-08-12T01:04:30.211Z,12.00
2017-08-12T01:07:01.144Z,12.00
2017-08-12T01:09:33.423Z,12.00
2017-08-12T01:12:02.223Z,11.90
2017-08-12T01:14:32.007Z,12.00
2017-08-12T01:17:04.723Z,12.00
2017-08-12T01:19:33.651Z,12.00
2017-08-12T01:22:07.291Z,11.90
2017-08-12T01:24:36.087Z,11.70
2017-08-12T01:27:07.935Z,11.60
2017-08-12T01:29:37.747Z,11.50
2017-08-12T01:32:05.767Z,11.50
2017-08-12T01:34:33.806Z,11.40
2017-08-12T01:37:02.595Z,11.30
2017-08-12T01:39:30.639Z,11.30
2017-08-12T01:41:59.639Z,11.30
2017-08-12T01:44:32.147Z,11.20
2017-08-12T01:47:00.403Z,11.20
2017-08-12T01:49:32.435Z,11.20
2017-08-12T01:52:01.442Z,11.20
2017-08-12T01:54:31.235Z,11.10
2017-08-12T01:56:59.267Z,11.10
2017-08-12T01:59:27.299Z,11.10
2017-08-12T02:01:57.098Z,11.10
2017-08-12T02:04:25.126Z,11.10
2017-08-12T02:07:00.011Z,11.10
2017-08-12T02:09:29.798Z,11.20
2017-08-12T02:11:57.822Z,11.20
2017-08-12T02:14:26.778Z,11.20
2017-08-12T02:16:59.858Z,11.20
2017-08-12T02:19:29.890Z,11.20
2017-08-12T02:22:00.595Z,11.20
2017-08-12T02:24:31.959Z,11.20
2017-08-12T02:27:02.914Z,11.20
2017-08-12T02:29:33.634Z,11.10
2017-08-12T02:32:02.426Z,11.10
2017-08-12T02:34:31.218Z,11.20
2017-08-12T02:37:00.030Z,11.30
2017-08-12T02:39:31.332Z,11.30
2017-08-12T02:41:59.358Z,11.30
2017-08-12T02:44:27.427Z,11.30
2017-08-12T02:47:00.470Z,11.40
2017-08-12T02:49:30.274Z,11.50
2017-08-12T02:51:58.302Z,11.50
2017-08-12T02:54:31.340Z,11.50
2017-08-12T02:57:04.050Z,11.50
2017-08-12T02:59:32.107Z,11.50
2017-08-12T03:04:59.493Z,11.60
2017-08-12T03:07:28.416Z,11.60
2017-08-12T03:09:57.437Z,11.70
2017-08-12T03:12:25.486Z,11.70
2017-08-12T03:14:54.506Z,11.70
2017-08-12T03:17:27.306Z,11.70
2017-08-12T03:19:55.338Z,11.70
2017-08-12T03:22:25.357Z,11.60
2017-08-12T03:24:53.406Z,11.60
2017-08-12T03:27:21.430Z,11.70
2017-08-12T03:29:50.390Z,11.70
2017-08-12T03:32:23.589Z,11.60
2017-08-12T03:34:51.621Z,11.60
2017-08-12T03:37:23.217Z,11.60
2017-08-12T03:39:53.021Z,11.50
2017-08-12T03:42:24.377Z,11.50
2017-08-12T03:44:53.174Z,11.50
2017-08-12T03:47:22.982Z,11.50
2017-08-12T03:49:51.974Z,11.60
2017-08-12T03:52:20.001Z,11.60
2017-08-12T03:54:49.730Z,11.60
2017-08-12T03:57:17.761Z,11.60
2017-08-12T03:59:47.673Z,11.60
2017-08-12T04:02:17.658Z,11.50
2017-08-12T04:04:45.709Z,11.50
2017-08-12T04:07:17.473Z,11.50
2017-08-12T04:09:45.521Z,11.60
2017-08-12T04:12:17.865Z,11.60
2017-08-12T04:14:45.889Z,11.70
2017-08-12T04:17:14.869Z,11.70
2017-08-12T04:19:44.911Z,11.70
2017-08-12T04:22:15.333Z,11.80
2017-08-12T04:24:43.309Z,11.80
2017-08-12T04:27:13.313Z,11.80
2017-08-12T04:29:43.117Z,11.80
2017-08-12T04:32:11.137Z,11.80
2017-08-12T04:34:46.210Z,11.90
2017-08-12T04:37:15.193Z,11.90
2017-08-12T04:39:48.917Z,11.90
2017-08-12T04:42:19.613Z,11.90
2017-08-12T04:44:51.317Z,11.90
2017-08-12T04:47:30.729Z,11.90
2017-08-12T04:49:59.741Z,11.90
2017-08-12T04:52:28.537Z,11.80
2017-08-12T04:55:01.835Z,11.70
2017-08-12T04:57:29.877Z,11.70
2017-08-12T05:00:01.129Z,11.70
2017-08-12T05:02:31.837Z,11.60
2017-08-12T05:05:01.865Z,11.60
2017-08-12T05:07:29.905Z,11.60
2017-08-12T05:09:59.885Z,11.60
2017-08-12T05:12:27.949Z,11.70
2017-08-12T05:14:57.937Z,11.80
2017-08-12T05:17:26.933Z,11.90
2017-08-12T05:19:58.596Z,11.90
2017-08-12T05:22:26.617Z,12.00
2017-08-12T05:24:56.597Z,12.10
2017-08-12T05:27:25.373Z,12.20
2017-08-12T05:30:06.820Z,12.20
2017-08-12T05:32:34.852Z,12.20
2017-08-12T05:35:02.881Z,12.30
2017-08-12T05:37:30.933Z,12.30
2017-08-12T05:40:02.205Z,12.30
2017-08-12T05:42:30.241Z,12.20
2017-08-12T05:45:01.533Z,12.20
2017-08-12T05:47:30.317Z,12.30
2017-08-12T05:50:01.052Z,12.30
2017-08-12T05:52:29.841Z,12.40
2017-08-12T05:55:02.937Z,12.40
2017-08-12T05:57:30.960Z,12.40
2017-08-12T05:59:58.984Z,12.60
2017-08-12T06:02:33.964Z,12.80
2017-08-12T06:05:06.860Z,12.90
2017-08-12T06:07:36.955Z,13.10
2017-08-12T06:10:06.904Z,13.10
2017-08-12T06:15:13.168Z,13.10
2017-08-12T06:17:42.212Z,13.50
2017-08-12T06:20:10.248Z,13.90
2017-08-12T06:22:41.216Z,14.20
2017-08-12T06:25:09.256Z,14.70
2017-08-12T06:27:37.283Z,15.00
2017-08-12T06:30:05.336Z,15.00
2017-08-12T06:32:33.388Z,15.00
2017-08-12T06:35:04.095Z,14.70
2017-08-12T06:37:35.059Z,14.70
2017-08-12T06:40:03.079Z,14.30
2017-08-12T06:42:31.100Z,14.10
2017-08-12T06:45:01.106Z,14.10
2017-08-12T06:47:30.999Z,13.90
2017-08-12T06:49:59.911Z,13.90
2017-08-12T06:52:30.636Z,13.90
2017-08-12T06:55:02.286Z,13.90
2017-08-12T06:57:32.289Z,14.00
2017-08-12T07:00:02.216Z,14.20
2017-08-12T07:02:30.236Z,14.30
2017-08-12T07:04:58.259Z,14.20
2017-08-12T07:07:27.240Z,14.40
2017-08-12T07:09:56.232Z,14.70
2017-08-12T07:12:29.324Z,14.70
2017-08-12T07:15:02.004Z,14.80
2017-08-12T07:17:30.037Z,15.10
2017-08-12T07:19:58.055Z,15.10
2017-08-12T07:22:28.776Z,15.20
2017-08-12T07:24:56.809Z,15.20
2017-08-12T07:27:24.853Z,15.10
2017-08-12T07:29:52.867Z,15.20
2017-08-12T07:32:20.900Z,15.30
2017-08-12T07:34:50.815Z,15.40
2017-08-12T07:37:25.323Z,15.40
2017-08-12T07:39:53.352Z,15.20
2017-08-12T07:42:21.371Z,15.10
2017-08-12T07:44:49.411Z,15.10
2017-08-12T07:47:18.387Z,15.20
2017-08-12T07:49:47.424Z,15.10
2017-08-12T07:52:17.487Z,15.00
2017-08-12T07:54:45.507Z,15.10
2017-08-12T07:57:15.487Z,15.10
2017-08-12T07:59:44.489Z,15.10
2017-08-12T08:02:13.499Z,15.10
2017-08-12T08:04:43.171Z,14.90
2017-08-12T08:07:11.211Z,14.90
2017-08-12T08:09:43.415Z,15.00
2017-08-12T08:12:12.424Z,15.00
2017-08-12T08:14:40.451Z,15.00
2017-08-12T08:17:16.231Z,15.10
2017-08-12T08:19:48.200Z,15.20
2017-08-12T08:22:17.191Z,15.10
2017-08-12T08:24:45.207Z,15.20
2017-08-12T08:27:13.218Z,15.30
2017-08-12T08:29:43.243Z,15.30
2017-08-12T08:32:12.227Z,15.20
2017-08-12T08:34:40.251Z,15.10
2017-08-12T08:37:08.275Z,15.10
2017-08-12T08:39:36.291Z,15.10
2017-08-12T08:42:04.303Z,15.10
2017-08-12T08:44:32.347Z,15.30
2017-08-12T08:47:00.359Z,15.40
2017-08-12T08:49:28.379Z,15.60
2017-08-12T08:51:58.331Z,16.10
2017-08-12T08:54:28.343Z,16.40
2017-08-12T08:56:56.363Z,16.40
2017-08-12T08:59:24.386Z,16.30
2017-08-12T09:01:52.403Z,16.00
2017-08-12T09:04:20.418Z,16.30
2017-08-12T09:06:48.446Z,16.40
2017-08-12T09:09:17.383Z,16.70
2017-08-12T09:11:45.394Z,16.90
2017-08-12T09:14:13.431Z,17.00
2017-08-12T09:16:41.447Z,16.90
2017-08-12T09:19:11.394Z,17.10
2017-08-12T09:21:46.114Z,17.50
2017-08-12T09:24:15.123Z,17.60
2017-08-12T09:26:44.111Z,17.50
2017-08-12T09:29:12.134Z,17.80
2017-08-12T09:31:40.150Z,18.00
2017-08-12T09:34:08.182Z,17.80
2017-08-12T09:36:37.126Z,17.50
2017-08-12T09:39:10.714Z,17.20
2017-08-12T09:41:38.731Z,17.20
2017-08-12T09:44:06.754Z,17.10
2017-08-12T09:46:37.702Z,17.10
2017-08-12T09:49:06.690Z,17.50
2017-08-12T09:51:34.702Z,17.90
2017-08-12T09:54:03.752Z,18.10
2017-08-12T09:56:32.758Z,18.30
2017-08-12T09:59:02.122Z,17.90
2017-08-12T10:01:30.138Z,18.10
2017-08-12T10:03:58.158Z,18.60
2017-08-12T10:06:27.026Z,19.20
2017-08-12T10:08:55.038Z,19.60
2017-08-12T10:11:23.058Z,19.10
2017-08-12T10:13:51.079Z,19.20
2017-08-12T10:16:20.072Z,19.30
2017-08-12T10:18:49.070Z,19.70
2017-08-12T10:21:18.054Z,19.50
2017-08-12T10:23:54.236Z,18.90
2017-08-12T10:26:28.102Z,18.60
2017-08-12T10:28:56.142Z,19.00
2017-08-12T10:31:24.162Z,19.30
2017-08-12T10:33:52.182Z,19.70
2017-08-12T10:36:21.895Z,19.70
2017-08-12T10:38:49.914Z,19.70
2017-08-12T10:41:18.907Z,20.10
2017-08-12T10:43:47.905Z,20.10
2017-08-12T10:46:19.969Z,19.90
2017-08-12T10:48:48.966Z,19.70
2017-08-12T10:51:16.970Z,19.80
2017-08-12T10:53:44.994Z,19.90
2017-08-12T10:56:13.093Z,20.10
2017-08-12T10:58:42.877Z,20.70
2017-08-12T11:01:11.869Z,20.70
2017-08-12T11:03:41.896Z,20.90
2017-08-12T11:06:10.877Z,20.80
2017-08-12T11:08:38.894Z,20.50
2017-08-12T11:11:06.929Z,20.00
2017-08-12T11:13:34.943Z,20.40
2017-08-12T11:16:02.963Z,20.60
2017-08-12T11:18:31.973Z,20.80
2017-08-12T11:21:00.761Z,20.60
2017-08-12T11:23:28.777Z,20.60
2017-08-12T11:25:56.965Z,19.90
2017-08-12T11:28:25.973Z,18.80
2017-08-12T11:30:54.961Z,18.10
2017-08-12T11:33:22.997Z,17.80
2017-08-12T11:35:51.925Z,17.40
2017-08-12T11:38:19.942Z,17.20
2017-08-12T11:40:48.901Z,17.00
2017-08-12T11:43:17.885Z,17.10
2017-08-12T11:45:45.901Z,17.10
2017-08-12T11:48:13.941Z,17.50
2017-08-12T11:50:41.949Z,17.80
2017-08-12T11:53:10.877Z,18.40
2017-08-12T11:55:38.898Z,19.70
2017-08-12T11:58:07.833Z,21.60
2017-08-12T12:03:05.760Z,23.70
2017-08-12T12:05:37.077Z,22.70
2017-08-12T12:08:05.089Z,22.00
2017-08-12T12:10:33.121Z,21.40
2017-08-12T12:13:01.544Z,20.30
2017-08-12T12:15:29.548Z,19.30
2017-08-12T12:17:58.487Z,18.90
2017-08-12T12:20:26.493Z,19.10
2017-08-12T12:22:55.504Z,20.10
2017-08-12T12:25:23.525Z,20.30
2017-08-12T12:27:51.672Z,21.00
2017-08-12T12:30:20.461Z,22.40
2017-08-12T12:32:54.248Z,22.40
2017-08-12T12:35:23.241Z,22.40
2017-08-12T12:37:51.252Z,22.90
2017-08-12T12:40:19.276Z,22.90
2017-08-12T12:42:47.296Z,22.80
2017-08-12T12:45:15.488Z,22.50
2017-08-12T12:47:44.421Z,22.90
2017-08-12T12:50:13.401Z,23.40
2017-08-12T12:52:41.425Z,23.60
2017-08-12T12:55:12.540Z,23.00
2017-08-12T12:57:41.500Z,22.30
2017-08-12T13:00:09.524Z,22.40
2017-08-12T13:02:43.308Z,22.90
2017-08-12T13:05:12.996Z,23.60
2017-08-12T13:07:42.504Z,23.60
2017-08-12T13:10:10.555Z,23.80
2017-08-12T13:12:38.568Z,23.90
2017-08-12T13:15:07.797Z,23.30
2017-08-12T13:17:35.820Z,23.30
2017-08-12T13:20:04.248Z,23.70
2017-08-12T13:22:32.233Z,23.70
2017-08-12T13:25:00.272Z,23.20
2017-08-12T13:27:30.132Z,22.40
2017-08-12T13:29:58.148Z,22.00
2017-08-12T13:32:26.892Z,22.00
2017-08-12T13:34:54.919Z,22.60
2017-08-12T13:37:23.843Z,23.00
2017-08-12T13:39:51.935Z,22.70
2017-08-12T13:42:20.912Z,22.20
2017-08-12T13:44:49.899Z,22.00
2017-08-12T13:47:21.579Z,23.40
2017-08-12T13:49:51.752Z,23.30
2017-08-12T13:52:20.787Z,23.90
2017-08-12T13:54:50.780Z,23.00
2017-08-12T13:57:18.799Z,22.80
2017-08-12T13:59:46.835Z,22.40
2017-08-12T14:02:16.759Z,22.30
2017-08-12T14:04:45.731Z,21.80
2017-08-12T14:07:14.752Z,21.70
2017-08-12T14:09:43.751Z,21.20
2017-08-12T14:12:12.543Z,21.20
2017-08-12T14:14:40.914Z,21.20
2017-08-12T14:17:09.875Z,21.10
2017-08-12T14:19:39.895Z,20.80
2017-08-12T14:22:07.907Z,20.60
2017-08-12T14:24:35.927Z,20.60
2017-08-12T14:27:03.947Z,21.00
2017-08-12T14:29:31.960Z,21.40
2017-08-12T14:32:00.966Z,21.70
2017-08-12T14:34:33.747Z,21.10
2017-08-12T14:37:02.739Z,20.70
2017-08-12T14:39:31.723Z,20.50
2017-08-12T14:42:00.732Z,20.30
2017-08-12T14:44:28.743Z,20.20
2017-08-12T14:47:00.339Z,20.20
2017-08-12T14:49:33.211Z,20.00
2017-08-12T14:52:05.931Z,19.80
2017-08-12T14:54:35.907Z,19.70
2017-08-12T14:57:05.939Z,19.60
2017-08-12T14:59:35.943Z,19.50
2017-08-12T15:02:04.940Z,19.50
2017-08-12T15:04:33.943Z,19.40
2017-08-12T15:07:07.822Z,19.30
2017-08-12T15:09:36.838Z,19.20
2017-08-12T15:12:04.911Z,19.30
2017-08-12T15:14:32.983Z,19.30
2017-08-12T15:17:01.014Z,19.10
2017-08-12T15:19:29.946Z,18.90
2017-08-12T15:21:58.918Z,18.90
2017-08-12T15:24:27.570Z,19.00
2017-08-12T15:26:56.503Z,18.90
2017-08-12T15:29:24.523Z,18.90
2017-08-12T15:31:52.576Z,18.80
2017-08-12T15:34:21.366Z,18.60
2017-08-12T15:36:55.042Z,18.50
2017-08-12T15:39:24.018Z,18.50
2017-08-12T15:41:56.406Z,18.50
2017-08-12T15:44:24.418Z,18.50
2017-08-12T15:46:53.183Z,18.60
2017-08-12T15:49:22.974Z,18.60
2017-08-12T15:51:54.518Z,18.60
2017-08-12T15:54:22.535Z,18.40
2017-08-12T15:56:50.554Z,18.40
2017-08-12T15:59:18.575Z,18.30
2017-08-12T16:01:46.598Z,18.20
2017-08-12T16:04:14.634Z,18.20
2017-08-12T16:06:48.978Z,18.10
2017-08-12T16:09:19.018Z,18.10
2017-08-12T16:11:47.042Z,18.10
2017-08-12T16:14:18.130Z,18.10
2017-08-12T16:16:46.146Z,18.10
2017-08-12T16:19:15.166Z,18.10
2017-08-12T16:21:44.210Z,18.10
2017-08-12T16:24:12.238Z,17.80
2017-08-12T16:26:40.253Z,17.60
2017-08-12T16:29:08.279Z,17.50
2017-08-12T16:31:36.314Z,17.40
2017-08-12T16:34:04.330Z,17.00
2017-08-12T16:36:33.321Z,16.70
2017-08-12T16:39:02.418Z,16.50
2017-08-12T16:41:31.206Z,16.00
2017-08-12T16:44:03.274Z,16.00
2017-08-12T16:46:31.298Z,15.70
2017-08-12T16:48:59.319Z,15.50
2017-08-12T16:51:27.353Z,15.30
2017-08-12T16:53:55.374Z,15.20
2017-08-12T16:56:23.390Z,15.10
2017-08-12T16:58:52.322Z,14.90
2017-08-12T17:01:20.335Z,14.90
2017-08-12T17:03:49.355Z,14.90
2017-08-12T17:06:17.373Z,14.90
2017-08-12T17:08:45.402Z,14.80
2017-08-12T17:11:17.262Z,14.80
2017-08-12T17:13:45.278Z,14.80
2017-08-12T17:16:13.297Z,14.70
2017-08-12T17:18:42.233Z,14.70
2017-08-12T17:21:11.181Z,14.70
2017-08-12T17:23:39.205Z,14.70
2017-08-12T17:26:07.241Z,14.70
2017-08-12T17:28:36.205Z,14.70
2017-08-12T17:31:04.226Z,14.60
2017-08-12T17:33:32.273Z,14.40
2017-08-12T17:36:01.066Z,14.30
2017-08-12T17:38:30.042Z,14.30
2017-08-12T17:40:58.974Z,14.40
2017-08-12T17:43:28.925Z,14.40
2017-08-12T17:45:56.949Z,14.30
2017-08-12T17:48:25.001Z,14.30
2017-08-12T17:50:53.005Z,14.30
2017-08-12T17:53:22.022Z,14.20
2017-08-12T17:55:50.074Z,14.30
2017-08-12T17:58:18.105Z,14.40
2017-08-12T18:00:46.145Z,14.40
2017-08-12T18:03:14.173Z,14.40
2017-08-12T18:05:43.113Z,14.40
2017-08-12T18:08:11.137Z,14.30
2017-08-12T18:10:43.269Z,14.30
2017-08-12T18:13:14.993Z,14.40
2017-08-12T18:15:44.018Z,14.40
2017-08-12T18:18:12.036Z,14.40
2017-08-12T18:20:40.068Z,14.40
2017-08-12T18:23:08.123Z,14.40
2017-08-12T18:25:37.921Z,14.30
2017-08-12T18:28:05.945Z,14.30
2017-08-12T18:30:33.985Z,14.30
2017-08-12T18:33:02.905Z,14.30
2017-08-12T18:35:30.925Z,14.20
2017-08-12T18:38:00.947Z,14.30
2017-08-12T18:40:28.969Z,14.30
2017-08-12T18:42:56.989Z,14.30
2017-08-12T18:45:25.029Z,14.40
2017-08-12T18:47:53.086Z,14.40
2017-08-12T18:50:21.116Z,14.40
2017-08-12T18:52:49.133Z,14.40
2017-08-12T18:55:17.161Z,14.40
2017-08-12T18:57:45.184Z,14.50
2017-08-12T19:00:15.238Z,14.40
2017-08-12T19:02:45.033Z,14.50
2017-08-12T19:05:13.829Z,14.50
2017-08-12T19:07:43.624Z,14.50
2017-08-12T19:10:12.607Z,14.50
2017-08-12T19:12:41.629Z,14.50
2017-08-12T19:15:11.569Z,14.50
2017-08-12T19:17:41.524Z,14.50
2017-08-12T19:20:09.548Z,14.50
2017-08-12T19:22:38.504Z,14.50
2017-08-12T19:25:08.502Z,14.60
2017-08-12T19:27:36.533Z,14.50
2017-08-12T19:30:04.568Z,14.40
2017-08-12T19:32:33.537Z,14.40
2017-08-12T19:35:01.556Z,14.40
2017-08-12T19:37:29.593Z,14.40
2017-08-12T19:39:57.608Z,14.40
2017-08-12T19:42:27.557Z,14.50
2017-08-12T19:44:55.601Z,14.50
2017-08-12T19:47:24.636Z,14.50
2017-08-12T19:49:53.624Z,14.50
2017-08-12T19:52:21.657Z,14.50
2017-08-12T19:54:49.681Z,14.50
2017-08-12T19:57:20.424Z,14.40
2017-08-12T19:59:49.225Z,14.40
2017-08-12T20:02:18.182Z,14.40
2017-08-12T20:04:46.188Z,14.50
2017-08-12T20:07:14.232Z,14.50
2017-08-12T20:09:43.016Z,14.40
2017-08-12T20:12:11.804Z,14.50
2017-08-12T20:14:41.613Z,14.40
2017-08-12T20:17:09.632Z,14.40
2017-08-12T20:19:37.660Z,14.30
2017-08-12T20:22:05.712Z,14.30
2017-08-12T20:24:34.696Z,14.30
2017-08-12T20:27:02.720Z,14.30
2017-08-12T20:29:30.748Z,14.30
2017-08-12T20:31:58.764Z,14.30
2017-08-12T20:34:26.785Z,14.30
2017-08-12T20:36:54.824Z,14.30
2017-08-12T20:39:22.848Z,14.30
2017-08-12T20:41:50.868Z,14.30
2017-08-12T20:44:19.880Z,14.30
2017-08-12T20:46:47.900Z,14.30
2017-08-12T20:49:16.821Z,14.30
2017-08-12T20:51:44.852Z,14.30
2017-08-12T20:54:12.873Z,14.40
2017-08-12T20:56:40.896Z,14.40
2017-08-12T20:59:08.940Z,14.40
2017-08-12T21:01:38.932Z,14.50
2017-08-12T21:04:06.970Z,14.50
2017-08-12T21:06:35.012Z,14.60
2017-08-12T21:09:03.040Z,14.50
2017-08-12T21:11:32.040Z,14.50
2017-08-12T21:14:00.085Z,14.50
2017-08-12T21:16:28.108Z,14.60
2017-08-12T21:18:56.139Z,14.60
2017-08-12T21:21:25.072Z,14.60
2017-08-12T21:23:53.104Z,14.60
2017-08-12T21:26:21.127Z,14.50
2017-08-12T21:28:49.159Z,14.60
2017-08-12T21:31:17.183Z,14.60
2017-08-12T21:33:45.223Z,14.60
2017-08-12T21:36:13.371Z,14.50
2017-08-12T21:38:42.272Z,14.50
2017-08-12T21:41:12.059Z,14.50
2017-08-12T21:43:40.095Z,14.50
2017-08-12T21:46:09.015Z,14.50
2017-08-12T21:48:37.039Z,14.50
2017-08-12T21:51:05.991Z,14.50
2017-08-12T21:53:34.011Z,14.50
2017-08-12T21:56:02.103Z,14.50
2017-08-12T21:58:31.063Z,14.50
2017-08-12T22:00:59.091Z,14.50
2017-08-12T22:03:27.107Z,14.50
2017-08-12T22:05:55.155Z,14.40
2017-08-12T22:08:23.199Z,14.50
2017-08-12T22:10:51.232Z,14.40
2017-08-12T22:13:19.300Z,14.40
2017-08-12T22:15:48.311Z,14.40
2017-08-12T22:18:16.323Z,14.40
2017-08-12T22:20:44.359Z,14.40
2017-08-12T22:23:13.355Z,14.40
2017-08-12T22:25:41.410Z,14.40
2017-08-12T22:28:09.467Z,14.40
2017-08-12T22:30:37.518Z,14.50
2017-08-12T22:33:05.525Z,14.50
2017-08-12T22:35:33.553Z,14.40
2017-08-12T22:38:01.570Z,14.40
2017-08-12T22:40:29.587Z,14.40
2017-08-12T22:42:57.650Z,14.40
2017-08-12T22:45:26.435Z,14.40
2017-08-12T22:47:54.478Z,14.40
2017-08-12T22:50:23.539Z,14.40
2017-08-12T22:52:51.555Z,14.30
2017-08-12T22:55:19.578Z,14.40
2017-08-12T22:57:47.630Z,14.40
2017-08-12T23:00:15.654Z,14.40
2017-08-12T23:02:43.690Z,14.40
2017-08-12T23:05:14.862Z,14.30
2017-08-12T23:07:44.783Z,14.40
2017-08-12T23:10:13.848Z,14.30
2017-08-12T23:12:41.875Z,14.30
2017-08-12T23:15:09.898Z,14.30
2017-08-12T23:17:37.916Z,14.30
2017-08-12T23:20:06.346Z,14.30
2017-08-12T23:22:36.370Z,14.30
2017-08-12T23:25:04.423Z,14.30
2017-08-12T23:27:32.454Z,14.30
2017-08-12T23:30:00.470Z,14.30
2017-08-12T23:32:28.495Z,14.30
2017-08-12T23:34:56.526Z,14.30
2017-08-12T23:37:25.506Z,14.30
2017-08-12T23:39:53.522Z,14.40
2017-08-12T23:42:21.598Z,14.40
2017-08-12T23:44:50.370Z,14.40
2017-08-12T23:47:18.382Z,14.40
2017-08-12T23:49:46.446Z,14.40
2017-08-12T23:52:14.466Z,14.30
2017-08-12T23:54:44.266Z,14.30
2017-08-12T23:57:13.254Z,14.30
2017-08-12T23:59:41.266Z,14.30
